TimeEDT,TemperatureF,Dew PointF,Humidity,Sea Level PressureIn,VisibilityMPH,Wind Direction,Wind SpeedMPH,Gust SpeedMPH,PrecipitationIn,Events,Conditions,WindDirDegrees,DateUTC
12:54 AM,39.9,37.0,89,29.75,-9999.0,NW,11.5,19.6,N/A,,Unknown,310,2013-05-26 04:54:00
1:54 AM,39.0,36.0,89,29.74,-9999.0,WNW,17.3,24.2,N/A,,Unknown,290,2013-05-26 05:54:00
2:54 AM,39.0,36.0,89,29.74,-9999.0,West,13.8,-,N/A,,Unknown,270,2013-05-26 06:54:00
3:54 AM,37.9,35.1,89,29.74,-9999.0,West,11.5,21.9,0.01,,Unknown,280,2013-05-26 07:54:00
4:54 AM,37.9,36.0,93,29.75,-9999.0,WNW,12.7,-,0.01,,Unknown,290,2013-05-26 08:54:00
5:54 AM,39.0,37.0,93,29.76,-9999.0,WNW,12.7,20.7,N/A,,Unknown,290,2013-05-26 09:54:00
6:54 AM,41.0,37.0,86,29.78,-9999.0,WNW,12.7,23.0,N/A,,Unknown,290,2013-05-26 10:54:00
7:54 AM,43.0,37.9,82,29.80,-9999.0,WNW,16.1,26.5,N/A,,Unknown,300,2013-05-26 11:54:00
8:54 AM,44.1,37.9,79,29.82,-9999.0,WNW,17.3,31.1,N/A,,Unknown,290,2013-05-26 12:54:00
9:54 AM,48.0,39.0,71,29.83,-9999.0,WNW,15.0,28.8,N/A,,Unknown,290,2013-05-26 13:54:00
10:54 AM,48.9,39.0,69,29.85,-9999.0,WNW,13.8,23.0,N/A,,Unknown,300,2013-05-26 14:54:00
11:54 AM,51.1,37.9,61,29.86,-9999.0,WNW,15.0,28.8,N/A,,Unknown,290,2013-05-26 15:54:00
12:54 PM,52.0,37.9,59,29.88,-9999.0,WNW,13.8,26.5,N/A,,Unknown,290,2013-05-26 16:54:00
1:54 PM,54.0,37.0,53,29.88,-9999.0,WNW,24.2,35.7,N/A,,Unknown,300,2013-05-26 17:54:00
2:54 PM,57.9,37.0,46,29.89,-9999.0,WNW,23.0,35.7,N/A,,Unknown,300,2013-05-26 18:54:00
3:54 PM,57.9,37.0,46,29.91,-9999.0,NW,19.6,34.5,N/A,,Unknown,310,2013-05-26 19:54:00
4:54 PM,55.0,35.1,47,29.94,-9999.0,NW,23.0,34.5,N/A,,Unknown,310,2013-05-26 20:54:00
5:54 PM,55.9,35.1,45,29.96,-9999.0,WNW,23.0,38.0,N/A,,Unknown,300,2013-05-26 21:54:00
6:54 PM,53.1,35.1,50,30.00,-9999.0,NW,24.2,40.3,N/A,,Unknown,310,2013-05-26 22:54:00
7:54 PM,51.1,36.0,56,30.04,-9999.0,WNW,9.2,25.3,N/A,,Unknown,300,2013-05-26 23:54:00
8:54 PM,48.9,37.0,64,30.07,-9999.0,WNW,13.8,25.3,N/A,,Unknown,300,2013-05-27 00:54:00
9:54 PM,46.9,37.0,68,30.09,-9999.0,WNW,11.5,19.6,N/A,,Unknown,300,2013-05-27 01:54:00
10:54 PM,46.0,37.0,71,30.10,-9999.0,WNW,13.8,23.0,N/A,,Unknown,300,2013-05-27 02:54:00
11:54 PM,45.0,37.0,74,30.12,-9999.0,West,12.7,-,N/A,,Unknown,280,2013-05-27 03:54:00